Time;durP1;ratioP1;P1;durP2;ratioP2;P2;SDS_P1;SDS_P2;PMS_P1;PMS_P2;Temp;Humidity;BMP_temperature;BMP_pressure;BME280_temperature;BME280_humidity;BME280_pressure;Samples;Min_cycle;Max_cycle;Signal;HPM_P1;HPM_P2
2022/06/05 00:02:36;;;;;;;;;12.60;11.20;;;;;18.16;100.00;101118.81;6320665;22;45289;-86
2022/06/05 00:05:05;;;;;;;;;13.60;11.80;;;;;18.18;100.00;101100.66;6322326;22;44798;-86
2022/06/05 00:07:43;;;;;;;;;12.60;9.80;;;;;18.20;100.00;101101.41;6319179;22;44777;-86
2022/06/05 00:10:26;;;;;;;;;11.20;10.40;;;;;18.20;100.00;101104.09;6319649;22;45123;-86
2022/06/05 00:13:10;;;;;;;;;13.40;11.20;;;;;18.21;100.00;101111.16;6284010;22;46203;-86
2022/06/05 00:15:36;;;;;;;;;15.20;13.80;;;;;18.17;100.00;101110.59;6287793;22;44777;-86
2022/06/05 00:18:01;;;;;;;;;14.25;12.25;;;;;18.19;100.00;101105.09;6315685;22;44775;-86
2022/06/05 00:20:27;;;;;;;;;14.00;14.00;;;;;18.16;100.00;101106.19;6315357;22;45332;-87
2022/06/05 00:22:52;;;;;;;;;16.75;12.50;;;;;18.15;100.00;101103.66;6312075;22;45093;-86
2022/06/05 00:25:18;;;;;;;;;10.00;10.00;;;;;18.15;100.00;101104.50;6306252;22;45170;-86
2022/06/05 00:28:00;;;;;;;;;14.00;10.50;;;;;18.11;100.00;101100.41;6307204;22;44827;-87
2022/06/05 00:30:50;;;;;;;;;16.20;14.80;;;;;18.12;100.00;101102.09;6306520;22;44904;-85
2022/06/05 00:33:24;;;;;;;;;19.40;18.40;;;;;18.11;100.00;101096.88;6308682;22;45035;-82
2022/06/05 00:36:13;;;;;;;;;16.00;14.60;;;;;18.10;100.00;101097.88;6305431;22;45170;-79
2022/06/05 00:39:05;;;;;;;;;14.60;12.80;;;;;18.08;100.00;101094.44;6305521;22;45269;-83
2022/06/05 00:41:52;;;;;;;;;14.00;13.40;;;;;18.12;100.00;101101.25;6305433;22;44808;-81
2022/06/05 00:44:25;;;;;;;;;13.00;13.00;;;;;18.14;100.00;101092.06;6306302;22;45007;-81
2022/06/05 00:46:51;;;;;;;;;12.80;12.80;;;;;18.10;100.00;101087.97;6312060;22;44653;-82
2022/06/05 00:49:19;;;;;;;;;11.80;11.00;;;;;18.12;100.00;101080.59;6256089;22;45299;-80
2022/06/05 00:51:44;;;;;;;;;16.20;14.80;;;;;18.13;100.00;101067.97;6305564;22;44766;-81
2022/06/05 00:54:09;;;;;;;;;15.75;14.25;;;;;18.14;100.00;101065.16;6305135;22;45273;-81
2022/06/05 00:56:38;;;;;;;;;14.00;12.75;;;;;18.16;100.00;101065.03;6304667;22;44682;-80
2022/06/05 00:59:03;;;;;;;;;16.40;14.60;;;;;18.15;100.00;101072.25;6304515;22;45360;-82
2022/06/05 01:01:29;;;;;;;;;12.50;10.00;;;;;18.15;100.00;101077.63;6305422;22;45182;-81
2022/06/05 01:04:01;;;;;;;;;11.75;9.50;;;;;18.17;100.00;101069.41;6305407;22;45261;-81
2022/06/05 01:06:29;;;;;;;;;19.00;14.60;;;;;18.18;100.00;101076.47;6303295;22;45325;-81
2022/06/05 01:08:55;;;;;;;;;13.20;13.20;;;;;18.19;100.00;101072.81;6306137;22;45256;-81
2022/06/05 01:11:37;;;;;;;;;14.25;12.75;;;;;18.20;100.00;101082.56;6314785;22;44669;-87
2022/06/05 01:14:35;;;;;;;;;12.20;10.40;;;;;18.19;100.00;101075.50;6318194;22;45345;-88
2022/06/05 01:17:22;;;;;;;;;8.80;8.80;;;;;18.16;100.00;101049.72;6312679;22;44799;-86
2022/06/05 01:20:03;;;;;;;;;11.00;10.80;;;;;18.15;100.00;101034.59;6287477;22;44740;-86
2022/06/05 01:22:39;;;;;;;;;14.80;11.80;;;;;18.20;100.00;101034.16;6314078;22;44653;-86
2022/06/05 01:25:56;;;;;;;;;6.80;5.40;;;;;18.21;100.00;101019.72;6315466;22;45180;-87
2022/06/05 01:28:28;;;;;;;;;12.40;12.40;;;;;18.18;100.00;101015.50;6245573;22;44762;-86
2022/06/05 01:31:08;;;;;;;;;12.20;12.20;;;;;18.15;100.00;101018.47;6311510;22;45161;-86
2022/06/05 01:33:40;;;;;;;;;8.60;8.60;;;;;18.12;100.00;101016.03;6309263;22;44799;-87
2022/06/05 01:36:13;;;;;;;;;12.40;12.00;;;;;18.15;100.00;101013.09;6307316;22;46772;-87
2022/06/05 01:38:57;;;;;;;;;11.20;10.40;;;;;18.15;100.00;101009.53;6287583;22;45326;-87
2022/06/05 01:41:39;;;;;;;;;10.20;10.20;;;;;18.12;100.00;100991.84;6312610;22;44634;-88
2022/06/05 01:44:12;;;;;;;;;14.40;12.20;;;;;18.11;100.00;100997.38;6314704;22;45297;-87
2022/06/05 01:46:38;;;;;;;;;17.00;14.40;;;;;18.09;100.00;100983.25;6284628;22;46663;-87
2022/06/05 01:49:14;;;;;;;;;12.60;12.60;;;;;18.10;100.00;100975.03;6315193;22;45478;-86
2022/06/05 01:52:04;;;;;;;;;14.40;14.40;;;;;18.11;100.00;100957.03;6313271;22;45309;-85
2022/06/05 01:54:42;;;;;;;;;15.00;14.00;;;;;18.10;100.00;100968.81;6323907;22;44780;-86
2022/06/05 01:57:12;;;;;;;;;17.20;14.20;;;;;18.08;100.00;100960.84;6317007;22;45058;-86
2022/06/05 01:59:44;;;;;;;;;13.00;13.00;;;;;18.09;100.00;100962.59;6316521;22;44760;-87
2022/06/05 02:02:19;;;;;;;;;19.20;12.60;;;;;18.10;100.00;100960.72;6287501;22;45219;-87
2022/06/05 02:04:54;;;;;;;;;14.60;12.60;;;;;18.08;100.00;100949.25;6315556;22;44816;-89
2022/06/05 02:07:36;;;;;;;;;14.60;12.80;;;;;18.06;100.00;100952.09;6316947;22;45082;-88
2022/06/05 02:10:13;;;;;;;;;11.40;11.40;;;;;18.09;100.00;100949.13;6308412;22;44663;-87
2022/06/05 02:12:39;;;;;;;;;14.60;14.60;;;;;18.11;100.00;100938.22;6304710;22;44817;-88
2022/06/05 02:15:06;;;;;;;;;5.20;5.20;;;;;18.10;100.00;100942.75;6287276;22;45607;-88
2022/06/05 02:17:32;;;;;;;;;15.20;13.80;;;;;18.12;100.00;100938.06;6312256;22;45364;-87
2022/06/05 02:20:00;;;;;;;;;17.40;14.60;;;;;18.14;100.00;100937.94;6315143;22;44661;-85
2022/06/05 02:22:47;;;;;;;;;12.40;10.60;;;;;18.12;100.00;100929.16;6313772;22;44677;-85
2022/06/05 02:25:15;;;;;;;;;16.80;13.00;;;;;18.12;100.00;100932.69;6289594;22;44945;-88
2022/06/05 02:27:40;;;;;;;;;15.40;12.20;;;;;18.14;100.00;100932.56;6321676;22;45014;-87
2022/06/05 02:30:08;;;;;;;;;17.00;14.50;;;;;18.14;100.00;100927.19;6294747;22;44680;-87
2022/06/05 02:32:50;;;;;;;;;15.20;13.40;;;;;18.14;100.00;100930.72;6328021;22;45158;-87
2022/06/05 02:35:42;;;;;;;;;13.00;11.00;;;;;18.14;100.00;100928.03;6329098;22;44789;-86
2022/06/05 02:38:23;;;;;;;;;16.80;14.60;;;;;18.15;100.00;100926.19;6312930;22;45554;-87
2022/06/05 02:41:03;;;;;;;;;19.80;15.00;;;;;18.13;100.00;100914.72;6289904;22;45183;-86
2022/06/05 02:47:19;;;;;;;;;14.40;13.80;;;;;18.07;100.00;100905.41;6315815;22;45170;-86
2022/06/05 02:49:45;;;;;;;;;16.60;16.00;;;;;18.08;100.00;100898.19;6302014;22;45297;-86
2022/06/05 02:52:10;;;;;;;;;12.00;12.00;;;;;18.06;100.00;100909.09;6281929;22;44730;-87
2022/06/05 02:54:45;;;;;;;;;10.75;9.50;;;;;18.08;100.00;100906.25;6305049;22;45178;-87
2022/06/05 02:57:10;;;;;;;;;15.00;15.00;;;;;18.07;100.00;100905.41;6313303;22;45241;-86
2022/06/05 02:59:36;;;;;;;;;14.50;14.25;;;;;18.06;100.00;100897.50;6288714;22;46618;-87
2022/06/05 03:04:45;;;;;;;;;14.00;13.80;;;;;18.05;100.00;100906.56;6307882;22;44755;-80
2022/06/05 03:07:10;;;;;;;;;18.00;15.00;;;;;18.03;100.00;100909.38;6304266;22;44721;-81
2022/06/05 03:09:36;;;;;;;;;18.75;16.75;;;;;17.99;100.00;100905.31;6304067;22;45078;-80
2022/06/05 03:12:01;;;;;;;;;15.25;15.25;;;;;17.98;100.00;100903.59;6276924;22;45229;-82
2022/06/05 03:14:27;;;;;;;;;17.25;11.25;;;;;17.97;100.00;100900.06;6304686;22;45352;-81
2022/06/05 03:16:53;;;;;;;;;15.25;13.50;;;;;18.00;100.00;100893.56;6304152;22;44768;-82
2022/06/05 03:19:18;;;;;;;;;14.00;12.00;;;;;17.99;100.00;100886.50;6304392;22;45520;-80
2022/06/05 03:21:44;;;;;;;;;11.75;9.75;;;;;17.97;100.00;100892.00;6305391;22;45743;-82
2022/06/05 03:24:09;;;;;;;;;11.00;9.50;;;;;17.94;100.00;100891.47;6309045;22;44958;-82
2022/06/05 03:26:35;;;;;;;;;7.25;7.25;;;;;17.96;100.00;100878.72;6310038;22;45372;-81
2022/06/05 03:29:00;;;;;;;;;10.50;10.50;;;;;17.97;100.00;100886.63;6289483;22;45312;-81
2022/06/05 03:31:26;;;;;;;;;14.25;10.50;;;;;18.00;100.00;100890.88;6313259;22;44809;-82
2022/06/05 03:33:52;;;;;;;;;10.00;10.00;;;;;18.01;100.00;100884.50;6313074;22;45340;-82
2022/06/05 03:36:17;;;;;;;;;10.75;10.75;;;;;18.01;100.00;100902.47;6314580;22;45237;-80
2022/06/05 03:38:43;;;;;;;;;10.25;10.25;;;;;18.03;100.00;100911.22;6306163;22;45295;-82
2022/06/05 03:41:09;;;;;;;;;12.50;12.50;;;;;18.03;100.00;100912.06;6278435;22;44688;-79
2022/06/05 03:43:36;;;;;;;;;13.80;11.40;;;;;18.00;100.00;100928.50;6305535;22;45146;-82
2022/06/05 03:46:05;;;;;;;;;11.00;11.00;;;;;17.95;100.00;100933.47;6305495;22;44900;-81
2022/06/05 03:48:30;;;;;;;;;13.80;13.20;;;;;17.93;100.00;100935.44;6305329;22;45199;-82
2022/06/05 03:50:56;;;;;;;;;10.50;10.50;;;;;17.85;100.00;100936.19;6305950;22;45254;-81
2022/06/05 03:53:21;;;;;;;;;14.75;14.75;;;;;17.81;100.00;100944.69;6307340;22;45168;-82
2022/06/05 03:55:47;;;;;;;;;10.75;10.75;;;;;17.78;100.00;100955.69;6313933;22;44935;-81
2022/06/05 03:58:12;;;;;;;;;7.50;7.50;;;;;17.73;100.00;100962.34;6306982;22;45264;-82
2022/06/05 04:00:40;;;;;;;;;22.25;17.25;;;;;17.71;100.00;100972.38;6306421;22;45152;-83
2022/06/05 04:03:05;;;;;;;;;16.80;14.40;;;;;17.68;100.00;100961.91;6310649;22;44679;-82
2022/06/05 04:05:30;;;;;;;;;14.50;13.00;;;;;17.69;100.00;100966.28;6281206;22;45084;-82
2022/06/05 04:07:56;;;;;;;;;13.00;13.00;;;;;17.71;100.00;100968.84;6278813;22;46781;-83
2022/06/05 04:10:21;;;;;;;;;14.00;11.75;;;;;17.70;100.00;100972.53;6306670;22;45250;-83
2022/06/05 04:12:47;;;;;;;;;15.75;14.00;;;;;17.72;100.00;100976.75;6307454;22;45273;-81
2022/06/05 04:15:13;;;;;;;;;15.75;14.50;;;;;17.76;100.00;100981.88;6313230;22;45474;-81
2022/06/05 04:17:38;;;;;;;;;17.00;14.00;;;;;17.79;100.00;100987.78;6314107;22;45151;-81
2022/06/05 04:20:05;;;;;;;;;13.75;13.75;;;;;17.83;100.00;100985.69;6315882;22;44786;-86
2022/06/05 04:22:32;;;;;;;;;13.20;13.00;;;;;17.85;100.00;100983.72;6298666;22;44804;-87
2022/06/05 04:24:59;;;;;;;;;3.20;3.20;;;;;17.87;100.00;100979.03;6323418;22;44776;-87
2022/06/05 04:27:25;;;;;;;;;15.80;14.20;;;;;17.88;100.00;100986.09;6319305;22;45012;-86
2022/06/05 04:29:51;;;;;;;;;12.20;10.20;;;;;17.92;100.00;100987.50;6322898;22;44641;-86
2022/06/05 04:32:16;;;;;;;;;9.25;9.25;;;;;17.97;100.00;100996.00;6306612;22;44688;-82
2022/06/05 04:34:41;;;;;;;;;14.00;14.00;;;;;18.03;100.00;100994.56;6308665;22;45475;-82
2022/06/05 04:37:07;;;;;;;;;12.00;10.25;;;;;18.06;100.00;100995.13;6315945;22;44813;-82
2022/06/05 04:39:32;;;;;;;;;10.50;8.75;;;;;18.11;100.00;101003.59;6319308;22;44713;-81
2022/06/05 04:41:57;;;;;;;;;15.00;13.25;;;;;18.15;100.00;101015.78;6320048;22;45246;-81
2022/06/05 04:44:23;;;;;;;;;13.75;13.75;;;;;18.20;100.00;101026.94;6318903;22;45371;-82
2022/06/05 04:46:48;;;;;;;;;17.00;15.50;;;;;18.22;100.00;101022.25;6312167;22;45191;-81
2022/06/05 04:49:14;;;;;;;;;17.75;15.00;;;;;18.27;100.00;101035.25;6312235;22;45233;-82
2022/06/05 04:51:41;;;;;;;;;13.20;13.20;;;;;18.34;100.00;101041.78;6309556;22;45259;-81
2022/06/05 04:54:08;;;;;;;;;12.20;12.20;;;;;18.41;100.00;101029.41;6305933;22;44759;-83
2022/06/05 04:56:34;;;;;;;;;11.60;11.60;;;;;18.48;100.00;101035.94;6250837;22;45446;-83
2022/06/05 04:59:01;;;;;;;;;13.25;11.50;;;;;18.56;100.00;101034.34;6305410;22;45253;-83
2022/06/05 05:01:32;;;;;;;;;10.00;10.00;;;;;18.62;100.00;101029.22;6304285;22;44716;-83
2022/06/05 05:04:02;;;;;;;;;11.00;10.20;;;;;18.68;100.00;101028.66;6276201;22;44783;-84
2022/06/05 05:06:29;;;;;;;;;13.20;11.40;;;;;18.78;100.00;101031.31;6308071;22;45291;-87
2022/06/05 05:08:55;;;;;;;;;15.80;14.40;;;;;18.86;100.00;101027.88;6307422;22;44807;-89
2022/06/05 05:11:22;;;;;;;;;12.00;9.50;;;;;18.92;100.00;101030.81;6308423;22;44711;-87
2022/06/05 05:13:48;;;;;;;;;9.60;8.60;;;;;18.97;100.00;101023.13;6306471;22;45207;-82
2022/06/05 05:16:13;;;;;;;;;11.80;11.00;;;;;19.06;100.00;101024.09;6310104;22;45269;-84
2022/06/05 05:18:39;;;;;;;;;12.00;10.00;;;;;19.16;100.00;101024.03;6316004;22;44773;-87
2022/06/05 05:21:14;;;;;;;;;11.00;10.80;;;;;19.22;100.00;101020.72;6285485;22;44693;-86
2022/06/05 05:23:40;;;;;;;;;8.20;7.00;;;;;19.31;100.00;101019.81;6316282;22;44764;-87
2022/06/05 05:26:19;;;;;;;;;11.00;10.60;;;;;19.43;100.00;101020.41;6312110;22;45304;-88
2022/06/05 05:28:45;;;;;;;;;13.40;10.20;;;;;19.55;100.00;101018.38;6277816;22;44791;-82
2022/06/05 05:31:36;;;;;;;;;10.00;9.20;;;;;19.64;100.00;101014.78;6306456;22;45266;-82
2022/06/05 05:34:02;;;;;;;;;15.00;11.40;;;;;19.74;100.00;101016.38;6306299;22;44786;-82
2022/06/05 05:36:28;;;;;;;;;10.50;10.50;;;;;19.85;100.00;101017.97;6278634;22;46486;-83
2022/06/05 05:44:25;;;;;;;;;16.00;13.60;;;;;20.11;100.00;101017.16;6314587;22;45328;-83
2022/06/05 05:46:50;;;;;;;;;18.40;14.80;;;;;20.21;100.00;101026.88;6314914;22;45189;-86
2022/06/05 05:49:15;;;;;;;;;15.75;13.25;;;;;20.36;100.00;101035.22;6313607;22;45217;-86
2022/06/05 05:51:42;;;;;;;;;16.00;13.75;;;;;20.53;100.00;101022.69;6317175;22;45238;-86
2022/06/05 05:54:08;;;;;;;;;15.00;13.00;;;;;20.65;100.00;101013.31;6319979;22;44795;-87
2022/06/05 05:56:34;;;;;;;;;15.40;12.00;;;;;20.75;100.00;101014.03;6325875;22;45279;-87
2022/06/05 05:59:00;;;;;;;;;12.00;12.00;;;;;20.82;100.00;101008.81;6297296;22;45170;-88
2022/06/05 06:01:26;;;;;;;;;14.25;12.00;;;;;20.85;100.00;100995.00;6321382;22;44677;-87
2022/06/05 06:03:52;;;;;;;;;12.20;11.60;;;;;20.92;100.00;100997.88;6322141;22;44849;-87
2022/06/05 06:06:23;;;;;;;;;12.25;11.25;;;;;20.98;100.00;100995.41;6319381;22;45305;-85
2022/06/05 06:08:48;;;;;;;;;9.40;8.40;;;;;21.03;100.00;100993.03;6322317;22;44590;-85
2022/06/05 06:11:14;;;;;;;;;10.75;10.75;;;;;21.08;100.00;100997.94;6324208;22;44653;-86
2022/06/05 06:13:39;;;;;;;;;13.25;12.00;;;;;21.15;100.00;100995.44;6267227;22;44742;-86
2022/06/05 06:16:05;;;;;;;;;15.75;11.00;;;;;21.19;100.00;100994.94;6308312;22;45461;-82
2022/06/05 06:18:30;;;;;;;;;14.50;12.50;;;;;21.25;100.00;100998.81;6318217;22;44658;-87
2022/06/05 06:20:55;;;;;;;;;13.00;11.00;;;;;21.29;100.00;100990.22;6320479;22;45088;-87
2022/06/05 06:23:21;;;;;;;;;9.75;8.25;;;;;21.28;100.00;100987.69;6293797;22;44856;-86
2022/06/05 06:25:46;;;;;;;;;10.75;10.75;;;;;21.28;100.00;100988.53;6317933;22;46483;-87
2022/06/05 06:28:12;;;;;;;;;13.25;10.50;;;;;21.31;100.00;100981.97;6315958;22;44607;-86
2022/06/05 06:30:40;;;;;;;;;11.25;11.00;;;;;21.32;100.00;100985.50;6316620;22;44775;-87
2022/06/05 06:33:06;;;;;;;;;10.40;10.40;;;;;21.33;100.00;100979.13;6285384;22;44875;-88
2022/06/05 06:35:34;;;;;;;;;11.00;9.20;;;;;21.32;100.00;100988.22;6322600;22;45462;-88
2022/06/05 06:38:00;;;;;;;;;11.40;10.20;;;;;21.30;100.00;100981.13;6296846;22;44849;-87
2022/06/05 06:40:26;;;;;;;;;11.75;10.25;;;;;21.32;100.00;100986.34;6325384;22;44756;-85
2022/06/05 06:42:55;;;;;;;;;15.25;11.00;;;;;21.36;100.00;100979.59;6323877;22;44742;-87
2022/06/05 06:45:20;;;;;;;;;13.60;9.20;;;;;21.51;100.00;100963.56;6322421;22;44932;-86
2022/06/05 06:47:46;;;;;;;;;9.25;9.25;;;;;21.61;100.00;100958.00;6320847;22;44729;-86
2022/06/05 06:50:11;;;;;;;;;11.00;9.75;;;;;21.73;100.00;100960.19;6323429;22;44822;-86
2022/06/05 06:52:37;;;;;;;;;8.75;8.75;;;;;21.87;100.00;100955.13;6321043;22;45344;-86
2022/06/05 06:55:04;;;;;;;;;10.00;8.50;;;;;21.92;100.00;100953.59;6319950;22;45012;-85
2022/06/05 06:57:29;;;;;;;;;10.20;9.20;;;;;22.13;100.00;100936.00;6317577;22;44931;-85
2022/06/05 06:59:55;;;;;;;;;6.75;6.75;;;;;22.35;100.00;100943.38;6322485;22;44666;-86
2022/06/05 07:02:24;;;;;;;;;7.50;6.75;;;;;22.62;100.00;100933.09;6324484;22;44668;-85
2022/06/05 07:04:49;;;;;;;;;6.00;6.00;;;;;22.83;100.00;100933.34;6321234;22;45037;-87
2022/06/05 07:07:14;;;;;;;;;8.00;6.75;;;;;22.97;100.00;100940.75;6317180;22;44781;-87
2022/06/05 07:09:40;;;;;;;;;9.50;8.00;;;;;23.14;100.00;100936.06;6290652;22;44797;-86
2022/06/05 07:12:06;;;;;;;;;5.25;5.25;;;;;23.25;100.00;100940.22;6318178;22;44772;-87
2022/06/05 07:14:31;;;;;;;;;7.25;6.25;;;;;23.37;100.00;100932.50;6317714;22;44821;-87
2022/06/05 07:16:57;;;;;;;;;6.25;6.25;;;;;23.60;100.00;100931.47;6316904;22;44645;-88
2022/06/05 07:19:22;;;;;;;;;7.25;5.75;;;;;23.93;100.00;100924.91;6290128;22;44664;-88
2022/06/05 07:21:47;;;;;;;;;8.00;4.50;;;;;24.18;100.00;100925.50;6317598;22;45117;-86
2022/06/05 07:24:13;;;;;;;;;3.00;3.00;;;;;24.26;100.00;100917.25;6315797;22;45289;-86
2022/06/05 07:26:38;;;;;;;;;6.50;4.75;;;;;24.39;100.00;100911.19;6312269;22;44563;-86
2022/06/05 07:29:04;;;;;;;;;5.75;5.00;;;;;24.55;100.00;100913.69;6284901;22;44643;-87
2022/06/05 07:31:31;;;;;;;;;7.00;5.60;;;;;24.56;100.00;100907.22;6314327;22;44896;-86
2022/06/05 07:33:59;;;;;;;;;3.00;2.00;;;;;24.69;100.00;100911.97;6317221;22;44949;-87
2022/06/05 07:36:26;;;;;;;;;6.40;6.40;;;;;24.55;100.00;100910.97;6318717;22;44835;-89
2022/06/05 07:38:53;;;;;;;;;7.00;5.80;;;;;24.69;100.00;100914.69;6285336;22;44773;-83
2022/06/05 07:41:27;;;;;;;;;7.60;7.20;;;;;24.57;100.00;100917.91;6308914;22;44821;-84
2022/06/05 07:43:54;;;;;;;;;8.80;6.60;;;;;23.72;100.00;100917.47;6306685;22;46591;-82
2022/06/05 07:46:20;;;;;;;;;6.00;6.00;;;;;23.39;100.00;100927.75;6313914;22;44622;-86
2022/06/05 07:48:47;;;;;;;;;5.20;5.20;;;;;22.92;100.00;100921.47;6314930;22;45282;-87
2022/06/05 07:56:49;;;;;;;;;6.60;5.20;;;;;23.43;100.00;100921.78;6322089;22;44649;-87
2022/06/05 07:59:15;;;;;;;;;7.75;6.00;;;;;23.63;100.00;100924.81;6325185;22;44816;-86
2022/06/05 08:01:40;;;;;;;;;6.00;6.00;;;;;23.34;100.00;100920.16;6329902;22;44747;-86
2022/06/05 08:04:06;;;;;;;;;7.00;6.00;;;;;23.17;100.00;100922.16;6298668;22;45282;-87
2022/06/05 08:06:35;;;;;;;;;8.25;7.00;;;;;23.00;100.00;100923.28;6323650;22;44564;-84
2022/06/05 08:09:05;;;;;;;;;6.20;6.20;;;;;22.89;100.00;100920.97;6308860;22;45328;-84
2022/06/05 08:11:31;;;;;;;;;7.40;7.40;;;;;22.73;100.00;100933.56;6308281;22;44769;-83
2022/06/05 08:13:57;;;;;;;;;5.60;5.60;;;;;22.48;100.00;100935.56;6307187;22;45369;-83
2022/06/05 08:16:25;;;;;;;;;6.00;6.00;;;;;22.24;100.00;100932.91;6306871;22;45407;-84
2022/06/05 08:18:54;;;;;;;;;4.40;4.40;;;;;22.43;100.00;100934.38;6306969;22;44705;-84
2022/06/05 08:21:21;;;;;;;;;7.60;7.20;;;;;22.57;100.00;100936.34;6306693;22;44928;-83
2022/06/05 08:23:46;;;;;;;;;6.00;6.00;;;;;22.32;100.00;100928.31;6317353;22;45154;-87
2022/06/05 08:26:13;;;;;;;;;4.75;4.75;;;;;22.05;100.00;100936.84;6292213;22;44626;-87
2022/06/05 08:28:39;;;;;;;;;7.60;6.00;;;;;21.84;100.00;100939.22;6292767;22;44782;-87
2022/06/05 08:31:04;;;;;;;;;6.00;6.00;;;;;21.59;100.00;100946.53;6324308;22;44898;-87
2022/06/05 08:33:30;;;;;;;;;5.50;5.50;;;;;21.65;100.00;100945.84;6319107;22;44939;-87
2022/06/05 08:35:55;;;;;;;;;6.75;6.75;;;;;21.52;100.00;100951.78;6296367;22;44713;-87
2022/06/05 08:41:27;;;;;;;;;5.00;5.00;;;;;21.35;100.00;100961.72;6327103;22;44621;-86
2022/06/05 08:44:14;;;;;;;;;8.80;7.20;;;;;21.40;100.00;100953.09;6325401;22;45045;-87
2022/06/05 08:46:50;;;;;;;;;3.00;3.00;;;;;21.45;100.00;100959.69;6323873;22;44681;-87
2022/06/05 08:49:42;;;;;;;;;5.00;5.00;;;;;21.53;100.00;100956.16;6318293;22;44587;-84
2022/06/05 08:52:24;;;;;;;;;3.20;3.20;;;;;21.25;100.00;100967.25;6293592;22;44867;-85
2022/06/05 08:55:06;;;;;;;;;4.80;4.00;;;;;21.18;100.00;100968.09;6311971;22;45164;-84
2022/06/05 08:57:46;;;;;;;;;9.00;6.00;;;;;20.89;100.00;100969.38;6316205;22;44691;-85
2022/06/05 09:00:25;;;;;;;;;4.00;4.00;;;;;20.96;100.00;100973.09;6317540;22;44689;-83
2022/06/05 09:03:00;;;;;;;;;8.00;6.60;;;;;20.92;100.00;100974.41;6316985;22;44750;-82
2022/06/05 09:05:31;;;;;;;;;1.00;1.00;;;;;20.98;100.00;100968.38;6313792;22;45504;-84
2022/06/05 09:08:02;;;;;;;;;8.00;7.20;;;;;21.01;100.00;100976.13;6311547;22;45220;-84
2022/06/05 09:10:47;;;;;;;;;7.60;6.20;;;;;21.13;100.00;100975.81;6312990;22;45542;-83
2022/06/05 09:13:23;;;;;;;;;8.80;8.00;;;;;20.98;100.00;100983.72;6285945;22;44736;-84
2022/06/05 09:16:00;;;;;;;;;11.20;10.00;;;;;20.97;100.00;100987.44;6307962;22;45336;-84
2022/06/05 09:18:35;;;;;;;;;13.80;9.80;;;;;20.93;100.00;100992.31;6313326;22;45264;-84
2022/06/05 09:21:05;;;;;;;;;9.20;7.60;;;;;20.88;100.00;100991.97;6319467;22;44704;-83
2022/06/05 09:23:34;;;;;;;;;10.00;9.00;;;;;20.65;100.00;101016.03;6320599;22;44891;-83
2022/06/05 09:26:12;;;;;;;;;11.40;10.20;;;;;20.49;100.00;101021.31;6317745;22;45210;-84
2022/06/05 09:29:06;;;;;;;;;9.40;9.40;;;;;20.47;100.00;101031.44;6314095;22;45240;-83
2022/06/05 09:32:12;;;;;;;;;8.20;7.20;;;;;20.55;100.00;101031.50;6310117;22;45304;-83
2022/06/05 09:34:41;;;;;;;;;11.00;10.80;;;;;20.49;100.00;101041.06;6308342;22;44822;-83
2022/06/05 09:37:16;;;;;;;;;7.80;7.20;;;;;20.45;100.00;101052.28;6309083;22;45115;-83
2022/06/05 09:39:47;;;;;;;;;9.60;9.60;;;;;20.41;100.00;101048.25;6308236;22;45150;-83
2022/06/05 09:42:42;;;;;;;;;13.20;11.00;;;;;20.37;100.00;101047.72;6306140;22;45431;-84
2022/06/05 09:45:16;;;;;;;;;12.40;10.60;;;;;20.48;100.00;101044.75;6311496;22;44611;-84
2022/06/05 09:48:23;;;;;;;;;12.60;11.20;;;;;20.65;100.00;101034.06;6310777;22;45380;-83
2022/06/05 09:50:48;;;;;;;;;7.80;7.80;;;;;20.74;100.00;101041.19;6313455;22;45273;-83
2022/06/05 09:53:21;;;;;;;;;11.25;11.25;;;;;20.66;100.00;101033.06;6317140;22;44762;-81
2022/06/05 09:55:53;;;;;;;;;11.80;10.40;;;;;20.55;100.00;101045.00;6312726;22;44705;-83
2022/06/05 09:58:43;;;;;;;;;18.40;15.60;;;;;20.54;100.00;101057.63;6311196;22;45074;-81
2022/06/05 10:01:24;;;;;;;;;9.80;9.80;;;;;20.45;100.00;101049.59;6282091;22;44695;-83
2022/06/05 10:03:51;;;;;;;;;10.60;10.60;;;;;20.37;100.00;101052.25;6312956;22;45419;-83
2022/06/05 10:06:37;;;;;;;;;13.40;12.80;;;;;20.35;100.00;101055.09;6313194;22;44839;-84
2022/06/05 10:09:15;;;;;;;;;11.40;9.40;;;;;20.18;100.00;101062.25;6311757;22;45378;-84
2022/06/05 10:11:58;;;;;;;;;12.80;12.40;;;;;20.27;100.00;101058.59;6284029;22;45187;-82
2022/06/05 10:14:57;;;;;;;;;10.60;10.60;;;;;20.21;100.00;101061.06;6312919;22;45199;-82
2022/06/05 10:17:31;;;;;;;;;9.60;9.20;;;;;20.45;100.00;101065.78;6311305;22;45373;-84
2022/06/05 10:19:59;;;;;;;;;16.20;16.20;;;;;20.26;100.00;101070.41;6314463;22;45076;-84
2022/06/05 10:22:39;;;;;;;;;11.60;11.00;;;;;20.44;100.00;101064.94;6314483;22;45314;-84
2022/06/05 10:25:25;;;;;;;;;11.60;11.60;;;;;20.42;100.00;101066.13;6306613;22;44719;-83
2022/06/05 10:27:55;;;;;;;;;15.80;15.80;;;;;20.29;100.00;101064.69;6306887;22;44781;-82
2022/06/05 10:30:26;;;;;;;;;13.40;11.20;;;;;20.37;100.00;101063.06;6305440;22;45360;-83
2022/06/05 10:33:03;;;;;;;;;13.80;13.80;;;;;20.45;100.00;101065.78;6311147;22;45337;-83
2022/06/05 10:36:07;;;;;;;;;5.00;5.00;;;;;20.51;100.00;101071.44;6311579;22;45299;-84
2022/06/05 10:38:41;;;;;;;;;16.60;15.40;;;;;20.44;100.00;101077.59;6310565;22;44785;-84
2022/06/05 10:41:20;;;;;;;;;8.60;7.20;;;;;20.27;100.00;101076.66;6307176;22;46886;-83
2022/06/05 10:44:05;;;;;;;;;19.80;15.20;;;;;20.52;100.00;101066.91;6308200;22;44765;-83
2022/06/05 10:46:34;;;;;;;;;15.80;14.60;;;;;20.59;100.00;101072.50;6309893;22;45435;-83
2022/06/05 10:49:12;;;;;;;;;13.00;12.40;;;;;20.57;100.00;101056.47;6315750;22;44783;-83
2022/06/05 10:51:58;;;;;;;;;19.00;16.20;;;;;20.22;100.00;101060.94;6280180;22;45448;-83
2022/06/05 10:54:45;;;;;;;;;17.20;16.40;;;;;20.06;100.00;101068.03;6308487;22;45243;-85
2022/06/05 10:57:20;;;;;;;;;15.80;14.00;;;;;20.01;100.00;101092.78;6310516;22;44760;-84
2022/06/05 10:59:55;;;;;;;;;14.75;11.25;;;;;19.96;100.00;101087.84;6307195;22;44768;-82
2022/06/05 11:02:58;;;;;;;;;18.80;16.00;;;;;20.22;100.00;101082.50;6312437;22;45170;-83
2022/06/05 11:05:51;;;;;;;;;21.00;20.40;;;;;20.11;100.00;101077.34;6316782;22;44653;-84
2022/06/05 11:08:42;;;;;;;;;18.40;17.20;;;;;20.26;100.00;101081.19;6321750;22;44760;-83
2022/06/05 11:14:19;;;;;;;;;18.80;18.80;;;;;20.22;100.00;101081.66;6316988;22;44838;-82
2022/06/05 11:16:59;;;;;;;;;21.00;19.40;;;;;20.31;100.00;101091.53;6326077;22;45154;-83
2022/06/05 11:19:56;;;;;;;;;21.40;20.00;;;;;20.23;100.00;101096.84;6313756;22;44652;-83
2022/06/05 11:22:22;;;;;;;;;20.40;19.40;;;;;20.42;100.00;101095.81;6290152;22;45115;-83
2022/06/05 11:24:56;;;;;;;;;21.50;20.00;;;;;20.25;100.00;101084.88;6281939;22;46607;-84
2022/06/05 11:27:47;;;;;;;;;11.80;11.20;;;;;20.21;100.00;101099.72;6310370;22;44727;-84
2022/06/05 11:30:25;;;;;;;;;20.40;18.40;;;;;20.37;100.00;101084.66;6312154;22;44723;-82
2022/06/05 11:33:14;;;;;;;;;15.50;14.25;;;;;20.57;100.00;101085.31;6311638;22;45362;-83
2022/06/05 11:35:45;;;;;;;;;19.25;18.00;;;;;20.65;100.00;101088.91;6305974;22;45069;-83
2022/06/05 11:38:30;;;;;;;;;11.20;11.20;;;;;20.42;100.00;101093.09;6307129;22;45133;-84
2022/06/05 11:41:02;;;;;;;;;14.60;14.60;;;;;20.16;100.00;101099.34;6308416;22;45151;-83
2022/06/05 11:43:32;;;;;;;;;15.60;14.40;;;;;20.00;100.00;101108.09;6312257;22;45462;-83
2022/06/05 11:46:05;;;;;;;;;21.40;18.60;;;;;19.96;100.00;101105.88;6313971;22;44967;-83
2022/06/05 11:48:45;;;;;;;;;19.00;18.00;;;;;19.94;100.00;101097.09;6308522;22;45136;-85
2022/06/05 11:51:21;;;;;;;;;17.60;16.80;;;;;19.92;100.00;101115.28;6311690;22;45508;-84
2022/06/05 11:53:52;;;;;;;;;16.00;14.60;;;;;19.96;100.00;101122.91;6309774;22;45585;-83